createdAt,value
2023-01-07T00:01:44.935Z,18.40
2023-01-07T00:04:14.661Z,18.03
2023-01-07T00:06:43.735Z,17.30
2023-01-07T00:09:13.797Z,17.70
2023-01-07T00:11:42.033Z,16.37
2023-01-07T00:14:10.930Z,13.93
2023-01-07T00:16:39.267Z,15.83
2023-01-07T00:19:14.022Z,16.07
2023-01-07T00:21:41.515Z,15.03
2023-01-07T00:24:10.683Z,14.63
2023-01-07T00:26:38.901Z,15.47
2023-01-07T00:29:07.040Z,14.10
2023-01-07T00:31:36.106Z,13.97
2023-01-07T00:34:06.086Z,12.53
2023-01-07T00:36:44.608Z,12.57
2023-01-07T00:39:20.560Z,11.93
2023-01-07T00:42:07.116Z,12.63
2023-01-07T00:44:34.650Z,11.57
2023-01-07T00:47:01.807Z,11.93
2023-01-07T00:49:29.242Z,12.03
2023-01-07T00:51:56.128Z,10.87
2023-01-07T00:54:23.359Z,11.00
2023-01-07T00:56:50.193Z,10.93
2023-01-07T00:59:17.102Z,10.83
2023-01-07T01:01:44.089Z,11.27
2023-01-07T01:04:10.979Z,10.43
2023-01-07T01:06:37.802Z,11.07
2023-01-07T01:09:04.696Z,11.03
2023-01-07T01:11:31.531Z,10.30
2023-01-07T01:13:58.671Z,11.00
2023-01-07T01:16:25.740Z,10.77
2023-01-07T01:18:52.653Z,11.00
2023-01-07T01:21:19.603Z,11.87
2023-01-07T01:23:46.515Z,13.70
2023-01-07T01:26:16.693Z,12.07
2023-01-07T01:28:43.950Z,12.30
2023-01-07T01:31:11.476Z,12.70
2023-01-07T01:33:38.423Z,14.53
2023-01-07T01:36:10.704Z,13.60
2023-01-07T01:38:37.936Z,13.57
2023-01-07T01:41:06.275Z,15.50
2023-01-07T01:43:35.847Z,15.23
2023-01-07T01:46:10.864Z,15.70
2023-01-07T01:48:39.849Z,16.67
2023-01-07T01:51:08.684Z,16.00
2023-01-07T01:53:36.599Z,16.93
2023-01-07T01:56:13.757Z,17.30
2023-01-07T01:58:52.101Z,17.33
2023-01-07T02:01:19.064Z,16.73
2023-01-07T02:03:47.842Z,16.97
2023-01-07T02:06:25.164Z,16.93
2023-01-07T02:08:52.615Z,16.73
2023-01-07T02:11:33.033Z,15.53
2023-01-07T02:13:59.781Z,15.50
2023-01-07T02:16:37.506Z,15.30
2023-01-07T02:19:29.723Z,14.40
2023-01-07T02:22:04.115Z,14.77
2023-01-07T02:24:41.981Z,14.70
2023-01-07T02:27:33.566Z,14.83
2023-01-07T02:30:16.926Z,14.57
2023-01-07T02:32:56.582Z,14.13
2023-01-07T02:35:32.456Z,13.97
2023-01-07T02:38:16.760Z,15.20
2023-01-07T02:40:58.283Z,14.77
2023-01-07T02:43:46.962Z,13.60
2023-01-07T02:46:46.929Z,13.30
2023-01-07T02:49:16.494Z,13.27
2023-01-07T02:51:44.000Z,13.53
2023-01-07T02:54:20.457Z,12.50
2023-01-07T02:57:12.159Z,12.87
2023-01-07T03:00:13.964Z,13.07
2023-01-07T03:02:59.484Z,12.23
2023-01-07T03:05:37.657Z,11.80
2023-01-07T03:08:21.367Z,11.57
2023-01-07T03:11:04.995Z,11.30
2023-01-07T03:13:38.887Z,11.20
2023-01-07T03:16:08.857Z,10.97
2023-01-07T03:18:42.835Z,11.10
2023-01-07T03:21:17.306Z,11.10
2023-01-07T03:23:47.742Z,11.10
2023-01-07T03:26:17.424Z,10.87
2023-01-07T03:28:45.562Z,10.97
2023-01-07T03:31:15.137Z,10.10
2023-01-07T03:33:50.624Z,10.40
2023-01-07T03:36:22.695Z,11.10
2023-01-07T03:38:51.081Z,9.97
2023-01-07T03:41:36.268Z,9.57
2023-01-07T03:44:03.386Z,9.20
2023-01-07T03:46:30.544Z,9.83
2023-01-07T03:48:57.382Z,9.70
2023-01-07T03:51:24.215Z,9.30
2023-01-07T03:53:51.036Z,8.13
2023-01-07T03:56:17.883Z,8.70
2023-01-07T03:58:44.709Z,8.63
2023-01-07T04:01:11.811Z,7.80
2023-01-07T04:03:38.662Z,8.30
2023-01-07T04:06:05.593Z,8.10
2023-01-07T04:08:32.411Z,7.87
2023-01-07T04:10:59.355Z,8.03
2023-01-07T04:13:26.613Z,7.83
2023-01-07T04:15:53.424Z,8.10
2023-01-07T04:18:20.255Z,7.10
2023-01-07T04:20:48.302Z,7.20
2023-01-07T04:23:15.743Z,7.07
2023-01-07T04:25:42.912Z,6.97
2023-01-07T04:28:09.843Z,7.37
2023-01-07T04:30:38.604Z,7.17
2023-01-07T04:33:06.532Z,6.83
2023-01-07T04:35:34.157Z,7.33
2023-01-07T04:38:01.111Z,7.50
2023-01-07T04:40:27.977Z,6.67
2023-01-07T04:42:54.786Z,6.30
2023-01-07T04:45:21.725Z,6.37
2023-01-07T04:47:48.630Z,6.27
2023-01-07T04:50:15.836Z,6.57
2023-01-07T04:52:42.696Z,5.37
2023-01-07T04:55:11.075Z,6.27
2023-01-07T04:57:38.215Z,5.53
2023-01-07T05:00:05.787Z,5.20
2023-01-07T05:02:32.657Z,5.23
2023-01-07T05:04:59.561Z,5.37
2023-01-07T05:07:26.397Z,5.03
2023-01-07T05:09:53.209Z,5.50
2023-01-07T05:12:20.542Z,5.00
2023-01-07T05:14:47.371Z,5.17
2023-01-07T05:17:14.161Z,5.57
2023-01-07T05:19:41.063Z,5.13
2023-01-07T05:22:07.946Z,5.30
2023-01-07T05:24:35.006Z,5.63
2023-01-07T05:27:01.863Z,5.80
2023-01-07T05:29:28.684Z,5.07
2023-01-07T05:31:55.576Z,4.97
2023-01-07T05:34:22.394Z,5.00
2023-01-07T05:36:49.283Z,4.80
2023-01-07T05:39:16.132Z,4.83
2023-01-07T05:41:42.968Z,5.27
2023-01-07T05:44:09.819Z,4.57
2023-01-07T05:46:36.640Z,4.90
2023-01-07T05:49:03.716Z,5.13
2023-01-07T05:51:30.569Z,4.87
2023-01-07T05:53:57.366Z,4.43
2023-01-07T05:56:24.614Z,4.47
2023-01-07T05:58:51.433Z,4.70
2023-01-07T06:01:18.297Z,4.70
2023-01-07T06:03:45.879Z,4.30
2023-01-07T06:06:12.739Z,4.43
2023-01-07T06:08:40.027Z,5.00
2023-01-07T06:11:08.110Z,4.53
2023-01-07T06:13:35.716Z,4.30
2023-01-07T06:16:06.622Z,4.70
2023-01-07T06:18:34.347Z,4.43
2023-01-07T06:21:01.329Z,4.60
2023-01-07T06:23:28.277Z,4.43
2023-01-07T06:25:55.127Z,4.03
2023-01-07T06:28:21.973Z,3.97
2023-01-07T06:30:49.194Z,4.30
2023-01-07T06:33:16.907Z,4.07
2023-01-07T06:35:46.980Z,4.00
2023-01-07T06:38:13.889Z,4.30
2023-01-07T06:40:40.861Z,4.43
2023-01-07T06:43:07.686Z,3.97
2023-01-07T06:45:34.464Z,5.20
2023-01-07T06:48:01.388Z,4.60
2023-01-07T06:50:28.281Z,4.90
2023-01-07T06:52:56.906Z,4.50
2023-01-07T06:55:23.989Z,4.60
2023-01-07T06:57:50.881Z,5.00
2023-01-07T07:00:17.903Z,4.50
2023-01-07T07:02:44.744Z,4.70
2023-01-07T07:05:11.971Z,4.87
2023-01-07T07:07:38.863Z,5.00
2023-01-07T07:10:07.570Z,4.63
2023-01-07T07:12:38.269Z,4.60
2023-01-07T07:15:07.382Z,5.30
2023-01-07T07:17:34.554Z,5.23
2023-01-07T07:20:01.429Z,4.70
2023-01-07T07:22:28.395Z,5.20
2023-01-07T07:24:55.221Z,5.60
2023-01-07T07:27:22.161Z,4.70
2023-01-07T07:29:48.983Z,4.97
2023-01-07T07:32:15.885Z,4.77
2023-01-07T07:34:42.811Z,5.83
2023-01-07T07:37:09.651Z,5.20
2023-01-07T07:39:37.483Z,5.50
2023-01-07T07:42:05.579Z,5.70
2023-01-07T07:44:32.465Z,5.10
2023-01-07T07:46:59.347Z,5.43
2023-01-07T07:49:26.184Z,5.07
2023-01-07T07:51:53.062Z,5.00
2023-01-07T07:54:21.315Z,4.57
2023-01-07T07:56:49.906Z,4.80
2023-01-07T07:59:16.752Z,4.93
2023-01-07T08:01:43.686Z,4.83
2023-01-07T08:04:10.638Z,4.60
2023-01-07T08:06:37.515Z,4.50
2023-01-07T08:09:04.294Z,5.20
2023-01-07T08:14:05.848Z,4.50
2023-01-07T08:16:32.748Z,4.70
2023-01-07T08:18:59.563Z,4.57
2023-01-07T08:21:26.420Z,4.00
2023-01-07T08:23:53.387Z,4.53
2023-01-07T08:26:20.319Z,4.77
2023-01-07T08:28:47.181Z,4.30
2023-01-07T08:31:14.233Z,5.20
2023-01-07T08:33:41.140Z,5.50
2023-01-07T08:36:21.965Z,5.90
2023-01-07T08:38:51.856Z,6.70
2023-01-07T08:41:19.645Z,4.43
2023-01-07T08:43:46.732Z,4.80
2023-01-07T08:46:13.616Z,4.00
2023-01-07T08:48:40.547Z,3.70
2023-01-07T08:51:07.739Z,4.27
2023-01-07T08:53:35.755Z,4.00
2023-01-07T08:56:02.596Z,4.67
2023-01-07T08:58:29.638Z,4.20
2023-01-07T09:01:01.815Z,4.90
2023-01-07T09:03:28.925Z,4.70
2023-01-07T09:05:55.959Z,3.90
2023-01-07T09:08:23.117Z,3.60
2023-01-07T09:10:50.119Z,4.03
2023-01-07T09:13:17.014Z,3.20
2023-01-07T09:15:44.632Z,3.73
2023-01-07T09:18:11.657Z,3.80
2023-01-07T09:20:38.813Z,3.70
2023-01-07T09:23:05.667Z,3.03
2023-01-07T09:25:32.456Z,3.10
2023-01-07T09:27:59.374Z,3.10
2023-01-07T09:30:26.190Z,2.90
2023-01-07T09:32:53.102Z,3.10
2023-01-07T09:35:19.930Z,3.73
2023-01-07T09:37:46.707Z,4.57
2023-01-07T09:40:38.905Z,3.50
2023-01-07T09:44:00.128Z,2.63
2023-01-07T09:46:29.366Z,2.67
2023-01-07T09:49:01.307Z,2.60
2023-01-07T09:51:37.195Z,2.40
2023-01-07T09:54:08.871Z,2.60
2023-01-07T09:56:39.524Z,2.47
2023-01-07T09:59:07.418Z,2.27
2023-01-07T10:01:56.375Z,9.00
2023-01-07T10:04:29.952Z,2.73
2023-01-07T10:07:24.675Z,2.40
2023-01-07T10:09:54.463Z,2.23
2023-01-07T10:12:35.986Z,2.37
2023-01-07T10:15:16.085Z,2.43
2023-01-07T10:18:06.130Z,5.10
2023-01-07T10:20:56.706Z,2.97
2023-01-07T10:23:28.793Z,3.10
2023-01-07T10:25:57.428Z,2.10
2023-01-07T10:28:39.286Z,2.13
2023-01-07T10:31:10.164Z,2.00
2023-01-07T10:33:39.999Z,1.80
2023-01-07T10:36:28.364Z,2.20
2023-01-07T10:39:31.380Z,1.70
2023-01-07T10:42:11.396Z,1.60
2023-01-07T10:45:16.603Z,1.87
2023-01-07T10:48:14.531Z,2.23
2023-01-07T10:51:01.538Z,2.00
2023-01-07T10:53:59.402Z,1.97
2023-01-07T10:56:37.072Z,1.40
2023-01-07T10:59:05.175Z,2.10
2023-01-07T11:01:36.509Z,1.70
2023-01-07T11:04:04.117Z,1.60
2023-01-07T11:06:52.552Z,1.60
2023-01-07T11:09:32.422Z,1.60
2023-01-07T11:12:08.744Z,1.70
2023-01-07T11:14:39.422Z,1.60
2023-01-07T11:17:30.245Z,1.87
2023-01-07T11:19:57.225Z,2.40
2023-01-07T11:22:26.868Z,2.47
2023-01-07T11:24:55.272Z,2.53
2023-01-07T11:27:25.397Z,2.40
2023-01-07T11:30:20.090Z,2.33
2023-01-07T11:33:04.533Z,2.00
2023-01-07T11:35:31.627Z,2.27
2023-01-07T11:37:59.869Z,2.10
2023-01-07T11:40:31.951Z,2.63
2023-01-07T11:43:01.950Z,2.40
2023-01-07T11:45:35.333Z,2.20
2023-01-07T11:48:09.933Z,2.30
2023-01-07T11:50:38.606Z,2.40
2023-01-07T11:53:14.449Z,2.20
2023-01-07T11:56:01.236Z,1.77
2023-01-07T11:58:31.766Z,1.97
2023-01-07T12:01:23.221Z,1.70
2023-01-07T12:03:53.187Z,1.40
2023-01-07T12:06:32.252Z,1.77
2023-01-07T12:09:13.704Z,1.83
2023-01-07T12:11:43.106Z,1.87
2023-01-07T12:14:30.050Z,1.90
2023-01-07T12:17:17.086Z,1.70
2023-01-07T12:20:23.714Z,1.70
2023-01-07T12:23:25.813Z,2.00
2023-01-07T12:26:20.970Z,2.13
2023-01-07T12:29:12.285Z,1.63
2023-01-07T12:31:44.900Z,1.90
2023-01-07T12:34:29.184Z,1.90
2023-01-07T12:37:19.198Z,1.87
2023-01-07T12:39:46.407Z,1.97
2023-01-07T12:42:36.771Z,1.73
2023-01-07T12:45:06.515Z,2.17
2023-01-07T12:47:59.328Z,2.10
2023-01-07T12:50:42.852Z,1.83
2023-01-07T12:53:34.311Z,2.97
2023-01-07T12:56:07.242Z,2.37
2023-01-07T12:58:45.314Z,2.17
2023-01-07T13:01:30.223Z,2.40
2023-01-07T13:04:39.833Z,8.57
2023-01-07T13:07:23.630Z,2.37
2023-01-07T13:10:00.629Z,2.27
2023-01-07T13:12:43.295Z,2.30
2023-01-07T13:15:13.206Z,2.47
2023-01-07T13:17:40.805Z,2.27
2023-01-07T13:20:15.883Z,2.37
2023-01-07T13:22:42.719Z,2.30
2023-01-07T13:25:12.518Z,2.20
2023-01-07T13:28:15.950Z,2.00
2023-01-07T13:30:51.625Z,2.00
2023-01-07T13:33:46.515Z,2.03
2023-01-07T13:36:37.277Z,3.10
2023-01-07T13:39:31.349Z,2.40
2023-01-07T13:42:13.675Z,2.30
2023-01-07T13:44:47.217Z,2.00
2023-01-07T13:47:18.338Z,1.90
2023-01-07T14:29:03.937Z,2.10
2023-01-07T14:31:31.187Z,2.07
2023-01-07T14:34:17.115Z,1.77
2023-01-07T14:37:02.488Z,1.80
2023-01-07T14:39:46.608Z,1.73
2023-01-07T14:42:19.073Z,1.80
2023-01-07T14:44:46.950Z,2.43
2023-01-07T14:47:15.339Z,1.90
2023-01-07T14:50:25.325Z,2.07
2023-01-07T14:53:08.644Z,2.00
2023-01-07T14:56:00.316Z,1.97
2023-01-07T14:58:51.939Z,2.30
2023-01-07T15:01:43.313Z,2.67
2023-01-07T15:04:10.154Z,2.10
2023-01-07T15:06:39.358Z,2.03
2023-01-07T15:09:29.552Z,2.00
2023-01-07T15:12:19.149Z,2.03
2023-01-07T15:15:15.862Z,1.60
2023-01-07T15:17:43.255Z,3.40
2023-01-07T15:20:10.850Z,2.30
2023-01-07T15:22:55.059Z,3.10
2023-01-07T15:25:43.197Z,3.07
2023-01-07T15:28:28.781Z,2.60
2023-01-07T15:31:21.393Z,2.23
2023-01-07T15:34:06.987Z,2.30
2023-01-07T15:36:36.776Z,2.37
2023-01-07T15:39:04.083Z,2.70
2023-01-07T15:41:39.241Z,2.37
2023-01-07T15:44:16.222Z,2.30
2023-01-07T15:46:43.209Z,2.10
2023-01-07T15:49:10.074Z,2.57
2023-01-07T15:51:42.090Z,2.93
2023-01-07T15:54:34.977Z,2.53
2023-01-07T15:57:05.136Z,2.60
2023-01-07T15:59:35.245Z,2.63
2023-01-07T16:02:17.191Z,2.30
2023-01-07T16:04:48.417Z,2.63
2023-01-07T16:07:25.979Z,2.70
2023-01-07T16:09:54.020Z,2.60
2023-01-07T16:12:39.508Z,2.80
2023-01-07T16:15:25.968Z,2.80
2023-01-07T16:17:55.548Z,2.57
2023-01-07T16:20:32.358Z,2.43
2023-01-07T16:23:08.484Z,2.50
2023-01-07T16:25:43.076Z,2.40
2023-01-07T16:28:20.035Z,2.57
2023-01-07T16:30:48.099Z,2.67
2023-01-07T16:33:19.010Z,2.40
2023-01-07T16:35:48.142Z,2.70
2023-01-07T16:38:18.424Z,3.10
2023-01-07T16:40:47.115Z,2.93
2023-01-07T16:43:50.628Z,2.77
2023-01-07T16:46:19.047Z,2.90
2023-01-07T16:48:47.782Z,2.80
2023-01-07T16:51:48.248Z,2.97
2023-01-07T16:54:19.652Z,2.80
2023-01-07T16:57:19.523Z,2.80
2023-01-07T16:59:55.450Z,3.00
2023-01-07T17:02:29.845Z,3.30
2023-01-07T17:05:13.351Z,2.83
2023-01-07T17:07:40.913Z,3.20
2023-01-07T17:10:17.181Z,2.80
2023-01-07T17:12:56.919Z,2.90
2023-01-07T17:15:32.982Z,3.23
2023-01-07T17:18:12.024Z,2.80
2023-01-07T17:20:46.831Z,2.93
2023-01-07T17:23:25.988Z,3.07
2023-01-07T17:26:26.315Z,2.80
2023-01-07T17:28:54.412Z,2.90
2023-01-07T17:31:22.679Z,3.00
2023-01-07T17:33:50.833Z,3.37
2023-01-07T17:36:20.353Z,3.60
2023-01-07T17:38:47.737Z,2.80
2023-01-07T17:41:36.256Z,2.80
2023-01-07T17:44:03.916Z,2.93
2023-01-07T17:46:30.775Z,3.17
2023-01-07T17:48:58.556Z,3.00
2023-01-07T17:51:27.948Z,3.40
2023-01-07T17:54:00.454Z,3.20
2023-01-07T17:56:27.272Z,2.70
2023-01-07T17:58:56.073Z,3.00
2023-01-07T18:01:24.291Z,3.40
2023-01-07T18:03:52.393Z,3.00
2023-01-07T18:06:21.567Z,3.30
2023-01-07T18:08:51.724Z,3.33
2023-01-07T18:11:46.069Z,3.30
2023-01-07T18:14:14.201Z,3.50
2023-01-07T18:16:41.182Z,3.50
2023-01-07T18:19:12.001Z,3.67
2023-01-07T18:21:39.059Z,3.70
2023-01-07T18:24:06.322Z,3.60
2023-01-07T18:26:33.362Z,3.50
2023-01-07T18:29:00.203Z,3.57
2023-01-07T18:31:27.086Z,3.73
2023-01-07T18:33:54.324Z,3.80
2023-01-07T18:36:21.607Z,3.67
2023-01-07T18:38:49.800Z,3.50
2023-01-07T18:41:16.790Z,5.07
2023-01-07T18:43:43.699Z,4.80
2023-01-07T18:46:10.627Z,4.37
2023-01-07T18:48:37.812Z,4.37
2023-01-07T18:51:10.127Z,4.30
2023-01-07T18:53:37.180Z,4.00
2023-01-07T18:56:08.329Z,4.27
2023-01-07T18:58:35.165Z,4.10
2023-01-07T19:01:03.857Z,4.23
2023-01-07T19:03:31.000Z,3.60
2023-01-07T19:06:00.033Z,3.70
2023-01-07T19:08:27.880Z,3.83
2023-01-07T19:10:54.782Z,3.90
2023-01-07T19:13:22.478Z,3.80
2023-01-07T19:15:50.278Z,3.50
2023-01-07T19:18:17.117Z,4.10
2023-01-07T19:20:44.005Z,3.90
2023-01-07T19:23:10.871Z,3.83
2023-01-07T19:25:37.727Z,3.93
2023-01-07T19:28:05.045Z,3.70
2023-01-07T19:30:31.855Z,3.53
2023-01-07T19:32:59.438Z,3.93
2023-01-07T19:35:27.431Z,3.50
2023-01-07T19:37:54.226Z,3.57
2023-01-07T19:40:21.221Z,3.63
2023-01-07T19:42:48.905Z,3.97
2023-01-07T19:45:15.827Z,4.40
2023-01-07T19:47:43.981Z,4.27
2023-01-07T19:50:11.608Z,4.10
2023-01-07T19:52:38.400Z,4.40
2023-01-07T19:55:06.039Z,4.30
2023-01-07T19:57:32.919Z,4.27
2023-01-07T19:59:59.911Z,4.40
2023-01-07T20:02:27.058Z,3.90
2023-01-07T20:04:54.032Z,4.13
2023-01-07T20:07:21.158Z,4.13
2023-01-07T20:12:23.459Z,3.97
2023-01-07T20:14:50.250Z,4.17
2023-01-07T20:17:17.164Z,3.80
2023-01-07T20:19:44.963Z,4.00
2023-01-07T20:22:12.164Z,3.90
2023-01-07T20:24:39.110Z,3.60
2023-01-07T20:27:05.957Z,3.90
2023-01-07T20:29:32.920Z,4.07
2023-01-07T20:32:00.034Z,3.90
2023-01-07T20:34:26.898Z,3.53
2023-01-07T20:36:54.036Z,4.03
2023-01-07T20:39:20.840Z,4.20
2023-01-07T20:41:47.709Z,3.80
2023-01-07T20:44:14.701Z,4.03
2023-01-07T20:46:42.089Z,4.10
2023-01-07T20:49:10.133Z,4.40
2023-01-07T20:51:37.054Z,3.57
2023-01-07T20:54:04.089Z,4.10
2023-01-07T20:56:34.177Z,4.70
2023-01-07T20:59:01.573Z,3.90
2023-01-07T21:01:29.635Z,3.90
2023-01-07T21:03:56.906Z,3.80
2023-01-07T21:06:23.870Z,3.90
2023-01-07T21:08:51.039Z,3.70
2023-01-07T21:11:20.790Z,3.83
2023-01-07T21:13:48.705Z,3.60
2023-01-07T21:16:16.228Z,3.87
2023-01-07T21:18:43.516Z,3.70
2023-01-07T21:21:13.397Z,3.97
2023-01-07T21:23:40.884Z,3.83
2023-01-07T21:26:09.057Z,3.67
2023-01-07T21:28:36.426Z,3.57
2023-01-07T21:31:06.611Z,3.53
2023-01-07T21:33:33.759Z,3.60
2023-01-07T21:36:00.803Z,3.53
2023-01-07T21:38:27.897Z,4.00
2023-01-07T21:40:55.216Z,3.20
2023-01-07T21:43:22.121Z,3.27
2023-01-07T21:45:49.120Z,3.00
2023-01-07T21:48:16.285Z,3.30
2023-01-07T21:50:44.252Z,3.17
2023-01-07T21:53:11.148Z,3.50
2023-01-07T21:55:39.744Z,3.00
2023-01-07T21:58:06.639Z,3.03
2023-01-07T22:00:33.533Z,3.30
2023-01-07T22:03:00.433Z,3.93
2023-01-07T22:05:27.488Z,4.97
2023-01-07T22:07:55.528Z,3.90
2023-01-07T22:10:22.525Z,3.20
2023-01-07T22:12:50.789Z,3.43
2023-01-07T22:15:17.924Z,3.17
2023-01-07T22:17:44.787Z,3.10
2023-01-07T22:20:12.476Z,2.90
2023-01-07T22:22:39.510Z,3.10
2023-01-07T22:25:07.452Z,3.63
2023-01-07T22:27:34.612Z,5.37
2023-01-07T22:30:02.760Z,3.30
2023-01-07T22:32:29.605Z,4.23
2023-01-07T22:34:56.611Z,12.83
2023-01-07T22:37:27.238Z,6.83
2023-01-07T22:40:00.055Z,4.77
2023-01-07T22:42:46.707Z,5.10
2023-01-07T22:45:17.901Z,7.50
2023-01-07T22:47:48.749Z,4.87
2023-01-07T22:50:16.391Z,4.70
2023-01-07T22:52:44.003Z,5.83
2023-01-07T22:55:12.865Z,11.07
2023-01-07T22:57:40.458Z,6.73
2023-01-07T23:00:16.777Z,18.63
2023-01-07T23:02:43.782Z,5.00
2023-01-07T23:05:11.114Z,6.20
2023-01-07T23:07:37.999Z,5.57
2023-01-07T23:10:05.677Z,6.00
2023-01-07T23:12:32.956Z,5.77
2023-01-07T23:15:00.040Z,4.83
2023-01-07T23:17:27.133Z,31.40
2023-01-07T23:19:53.937Z,5.00
2023-01-07T23:22:20.794Z,8.87
2023-01-07T23:24:48.672Z,5.60
2023-01-07T23:27:15.645Z,3.97
2023-01-07T23:29:42.985Z,3.03
2023-01-07T23:32:12.467Z,3.30
2023-01-07T23:34:40.032Z,5.40
2023-01-07T23:37:07.093Z,3.07
2023-01-07T23:39:33.935Z,3.60
2023-01-07T23:42:02.298Z,2.90
2023-01-07T23:44:29.165Z,3.03
2023-01-07T23:46:55.999Z,3.53
2023-01-07T23:49:22.830Z,3.27
2023-01-07T23:51:49.909Z,3.20
2023-01-07T23:54:16.792Z,2.93
2023-01-07T23:56:43.870Z,2.70
2023-01-07T23:59:10.848Z,2.50
